sensor_id;sensor_type;location;lat;lon;timestamp;temperature;humidity
41344;DHT22;27089;50.022;7.604;2024-01-30T00:00:08;2.70;99.90
41344;DHT22;27089;50.022;7.604;2024-01-30T00:02:35;2.70;99.90
41344;DHT22;27089;50.022;7.604;2024-01-30T00:05:02;2.70;99.90
41344;DHT22;27089;50.022;7.604;2024-01-30T00:07:30;2.70;99.90
41344;DHT22;27089;50.022;7.604;2024-01-30T00:09:58;2.80;99.90
41344;DHT22;27089;50.022;7.604;2024-01-30T00:12:25;2.80;99.90
41344;DHT22;27089;50.022;7.604;2024-01-30T00:14:52;2.80;99.90
41344;DHT22;27089;50.022;7.604;2024-01-30T00:17:19;2.70;99.90
41344;DHT22;27089;50.022;7.604;2024-01-30T00:19:47;2.70;99.90
41344;DHT22;27089;50.022;7.604;2024-01-30T00:22:14;2.60;99.90
41344;DHT22;27089;50.022;7.604;2024-01-30T00:24:41;2.50;99.90
41344;DHT22;27089;50.022;7.604;2024-01-30T00:27:09;2.50;99.90
41344;DHT22;27089;50.022;7.604;2024-01-30T00:29:36;2.40;99.90
41344;DHT22;27089;50.022;7.604;2024-01-30T00:32:04;2.40;99.90
41344;DHT22;27089;50.022;7.604;2024-01-30T00:34:31;2.30;99.90
41344;DHT22;27089;50.022;7.604;2024-01-30T00:36:58;2.30;99.90
41344;DHT22;27089;50.022;7.604;2024-01-30T00:39:25;2.40;99.90
41344;DHT22;27089;50.022;7.604;2024-01-30T00:41:52;2.40;99.90
41344;DHT22;27089;50.022;7.604;2024-01-30T00:44:20;2.40;99.90
41344;DHT22;27089;50.022;7.604;2024-01-30T00:46:47;2.40;99.90
41344;DHT22;27089;50.022;7.604;2024-01-30T00:49:14;2.40;99.90
41344;DHT22;27089;50.022;7.604;2024-01-30T00:51:41;2.40;99.90
41344;DHT22;27089;50.022;7.604;2024-01-30T00:54:08;2.40;99.90
41344;DHT22;27089;50.022;7.604;2024-01-30T00:56:36;2.40;99.90
41344;DHT22;27089;50.022;7.604;2024-01-30T00:59:03;2.40;99.90
41344;DHT22;27089;50.022;7.604;2024-01-30T01:01:31;2.30;99.90
41344;DHT22;27089;50.022;7.604;2024-01-30T01:03:58;2.20;99.90
41344;DHT22;27089;50.022;7.604;2024-01-30T01:06:25;2.10;99.90
41344;DHT22;27089;50.022;7.604;2024-01-30T01:08:52;2.20;99.90
41344;DHT22;27089;50.022;7.604;2024-01-30T01:11:19;2.20;99.90
41344;DHT22;27089;50.022;7.604;2024-01-30T01:13:46;2.20;99.90
41344;DHT22;27089;50.022;7.604;2024-01-30T01:16:13;2.20;99.90
41344;DHT22;27089;50.022;7.604;2024-01-30T01:18:41;2.30;99.90
41344;DHT22;27089;50.022;7.604;2024-01-30T01:21:08;2.30;99.90
41344;DHT22;27089;50.022;7.604;2024-01-30T01:23:35;2.20;99.90
41344;DHT22;27089;50.022;7.604;2024-01-30T01:26:02;2.20;99.90
41344;DHT22;27089;50.022;7.604;2024-01-30T01:28:29;2.20;99.90
41344;DHT22;27089;50.022;7.604;2024-01-30T01:30:59;2.30;99.90
41344;DHT22;27089;50.022;7.604;2024-01-30T01:33:30;2.30;99.90
41344;DHT22;27089;50.022;7.604;2024-01-30T01:36:00;2.20;99.90
41344;DHT22;27089;50.022;7.604;2024-01-30T01:38:28;2.20;99.90
41344;DHT22;27089;50.022;7.604;2024-01-30T01:40:55;2.20;99.90
41344;DHT22;27089;50.022;7.604;2024-01-30T01:43:22;2.10;99.90
41344;DHT22;27089;50.022;7.604;2024-01-30T01:45:49;2.10;99.90
41344;DHT22;27089;50.022;7.604;2024-01-30T01:48:16;2.10;99.90
41344;DHT22;27089;50.022;7.604;2024-01-30T01:50:43;2.10;99.90
41344;DHT22;27089;50.022;7.604;2024-01-30T01:53:12;2.10;99.90
41344;DHT22;27089;50.022;7.604;2024-01-30T01:55:40;2.10;99.90
41344;DHT22;27089;50.022;7.604;2024-01-30T01:58:07;2.10;99.90
41344;DHT22;27089;50.022;7.604;2024-01-30T02:00:36;2.10;99.90
41344;DHT22;27089;50.022;7.604;2024-01-30T02:03:06;2.00;99.90
41344;DHT22;27089;50.022;7.604;2024-01-30T02:05:33;2.10;99.90
41344;DHT22;27089;50.022;7.604;2024-01-30T02:08:01;2.10;99.90
41344;DHT22;27089;50.022;7.604;2024-01-30T02:10:30;2.10;99.90
41344;DHT22;27089;50.022;7.604;2024-01-30T02:12:57;2.10;99.90
41344;DHT22;27089;50.022;7.604;2024-01-30T02:15:24;2.20;99.90
41344;DHT22;27089;50.022;7.604;2024-01-30T02:17:51;2.10;99.90
41344;DHT22;27089;50.022;7.604;2024-01-30T02:20:18;2.10;99.90
41344;DHT22;27089;50.022;7.604;2024-01-30T02:22:47;2.10;99.90
41344;DHT22;27089;50.022;7.604;2024-01-30T02:25:15;2.00;99.90
41344;DHT22;27089;50.022;7.604;2024-01-30T02:27:42;2.00;99.90
41344;DHT22;27089;50.022;7.604;2024-01-30T02:30:10;2.10;99.90
41344;DHT22;27089;50.022;7.604;2024-01-30T02:32:37;2.10;99.90
41344;DHT22;27089;50.022;7.604;2024-01-30T02:35:04;2.00;99.90
41344;DHT22;27089;50.022;7.604;2024-01-30T02:37:31;2.00;99.90
41344;DHT22;27089;50.022;7.604;2024-01-30T02:39:59;2.00;99.90
41344;DHT22;27089;50.022;7.604;2024-01-30T02:42:26;2.00;99.90
41344;DHT22;27089;50.022;7.604;2024-01-30T02:44:53;2.00;99.90
41344;DHT22;27089;50.022;7.604;2024-01-30T02:47:23;2.00;99.90
41344;DHT22;27089;50.022;7.604;2024-01-30T02:49:50;2.00;99.90
41344;DHT22;27089;50.022;7.604;2024-01-30T02:52:17;2.10;99.90
41344;DHT22;27089;50.022;7.604;2024-01-30T02:54:45;2.10;99.90
41344;DHT22;27089;50.022;7.604;2024-01-30T02:57:13;2.10;99.90
41344;DHT22;27089;50.022;7.604;2024-01-30T02:59:40;2.10;99.90
41344;DHT22;27089;50.022;7.604;2024-01-30T03:02:07;2.00;99.90
41344;DHT22;27089;50.022;7.604;2024-01-30T03:04:34;2.00;99.90
41344;DHT22;27089;50.022;7.604;2024-01-30T03:07:01;2.00;99.90
41344;DHT22;27089;50.022;7.604;2024-01-30T03:09:29;2.00;99.90
41344;DHT22;27089;50.022;7.604;2024-01-30T03:11:56;2.00;99.90
41344;DHT22;27089;50.022;7.604;2024-01-30T03:14:24;2.00;99.90
41344;DHT22;27089;50.022;7.604;2024-01-30T03:16:51;2.10;99.90
41344;DHT22;27089;50.022;7.604;2024-01-30T03:19:18;2.10;99.90
41344;DHT22;27089;50.022;7.604;2024-01-30T03:21:45;2.10;99.90
41344;DHT22;27089;50.022;7.604;2024-01-30T03:24:12;2.10;99.90
41344;DHT22;27089;50.022;7.604;2024-01-30T03:26:39;2.00;99.90
41344;DHT22;27089;50.022;7.604;2024-01-30T03:29:06;2.00;99.90
41344;DHT22;27089;50.022;7.604;2024-01-30T03:31:35;1.90;99.90
41344;DHT22;27089;50.022;7.604;2024-01-30T03:34:02;1.80;99.90
41344;DHT22;27089;50.022;7.604;2024-01-30T03:36:29;1.80;99.90
41344;DHT22;27089;50.022;7.604;2024-01-30T03:38:58;1.90;99.90
41344;DHT22;27089;50.022;7.604;2024-01-30T03:41:25;1.90;99.90
41344;DHT22;27089;50.022;7.604;2024-01-30T03:43:52;1.90;99.90
41344;DHT22;27089;50.022;7.604;2024-01-30T03:46:19;1.90;99.90
41344;DHT22;27089;50.022;7.604;2024-01-30T03:48:48;2.00;99.90
41344;DHT22;27089;50.022;7.604;2024-01-30T03:51:15;2.00;99.90
41344;DHT22;27089;50.022;7.604;2024-01-30T03:53:42;1.90;99.90
41344;DHT22;27089;50.022;7.604;2024-01-30T03:56:09;1.90;99.90
41344;DHT22;27089;50.022;7.604;2024-01-30T03:58:36;1.90;99.90
41344;DHT22;27089;50.022;7.604;2024-01-30T04:01:03;1.90;99.90
41344;DHT22;27089;50.022;7.604;2024-01-30T04:03:30;1.80;99.90
41344;DHT22;27089;50.022;7.604;2024-01-30T04:05:59;1.90;99.90
41344;DHT22;27089;50.022;7.604;2024-01-30T04:08:26;1.90;99.90
41344;DHT22;27089;50.022;7.604;2024-01-30T04:10:53;1.80;99.90
41344;DHT22;27089;50.022;7.604;2024-01-30T04:13:20;1.80;99.90
41344;DHT22;27089;50.022;7.604;2024-01-30T04:15:47;1.70;99.90
41344;DHT22;27089;50.022;7.604;2024-01-30T04:18:14;1.60;99.90
41344;DHT22;27089;50.022;7.604;2024-01-30T04:20:41;1.60;99.90
41344;DHT22;27089;50.022;7.604;2024-01-30T04:23:09;1.70;99.90
41344;DHT22;27089;50.022;7.604;2024-01-30T04:25:36;1.70;99.90
41344;DHT22;27089;50.022;7.604;2024-01-30T04:28:03;1.80;99.90
41344;DHT22;27089;50.022;7.604;2024-01-30T04:30:30;1.80;99.90
41344;DHT22;27089;50.022;7.604;2024-01-30T04:32:57;1.80;99.90
41344;DHT22;27089;50.022;7.604;2024-01-30T04:35:24;1.80;99.90
41344;DHT22;27089;50.022;7.604;2024-01-30T04:37:52;1.80;99.90
41344;DHT22;27089;50.022;7.604;2024-01-30T04:40:21;1.80;99.90
41344;DHT22;27089;50.022;7.604;2024-01-30T04:42:48;1.70;99.90
41344;DHT22;27089;50.022;7.604;2024-01-30T04:45:15;1.70;99.90
41344;DHT22;27089;50.022;7.604;2024-01-30T04:47:42;1.70;99.90
41344;DHT22;27089;50.022;7.604;2024-01-30T04:50:09;1.70;99.90
41344;DHT22;27089;50.022;7.604;2024-01-30T04:52:36;1.70;99.90
41344;DHT22;27089;50.022;7.604;2024-01-30T04:55:04;1.70;99.90
41344;DHT22;27089;50.022;7.604;2024-01-30T04:57:32;1.70;99.90
41344;DHT22;27089;50.022;7.604;2024-01-30T05:00:00;1.70;99.90
41344;DHT22;27089;50.022;7.604;2024-01-30T05:02:27;1.70;99.90
41344;DHT22;27089;50.022;7.604;2024-01-30T05:04:54;1.70;99.90
41344;DHT22;27089;50.022;7.604;2024-01-30T05:07:21;1.70;99.90
41344;DHT22;27089;50.022;7.604;2024-01-30T05:09:48;1.80;99.90
41344;DHT22;27089;50.022;7.604;2024-01-30T05:12:15;1.80;99.90
41344;DHT22;27089;50.022;7.604;2024-01-30T05:14:44;1.80;99.90
41344;DHT22;27089;50.022;7.604;2024-01-30T05:17:11;1.90;99.90
41344;DHT22;27089;50.022;7.604;2024-01-30T05:19:38;1.80;99.90
41344;DHT22;27089;50.022;7.604;2024-01-30T05:22:05;1.80;99.90
41344;DHT22;27089;50.022;7.604;2024-01-30T05:24:32;1.80;99.90
41344;DHT22;27089;50.022;7.604;2024-01-30T05:26:59;1.70;99.90
41344;DHT22;27089;50.022;7.604;2024-01-30T05:29:27;1.70;99.90
41344;DHT22;27089;50.022;7.604;2024-01-30T05:31:55;1.70;99.90
41344;DHT22;27089;50.022;7.604;2024-01-30T05:34:22;1.70;99.90
41344;DHT22;27089;50.022;7.604;2024-01-30T05:36:49;1.70;99.90
41344;DHT22;27089;50.022;7.604;2024-01-30T05:39:16;1.60;99.90
41344;DHT22;27089;50.022;7.604;2024-01-30T05:41:43;1.70;99.90
41344;DHT22;27089;50.022;7.604;2024-01-30T05:44:10;1.70;99.90
41344;DHT22;27089;50.022;7.604;2024-01-30T05:46:37;1.60;99.90
41344;DHT22;27089;50.022;7.604;2024-01-30T05:49:06;1.60;99.90
41344;DHT22;27089;50.022;7.604;2024-01-30T05:51:33;1.50;99.90
41344;DHT22;27089;50.022;7.604;2024-01-30T05:54:00;1.60;99.90
41344;DHT22;27089;50.022;7.604;2024-01-30T05:56:29;1.60;99.90
41344;DHT22;27089;50.022;7.604;2024-01-30T05:58:56;1.60;99.90
41344;DHT22;27089;50.022;7.604;2024-01-30T06:01:23;1.60;99.90
41344;DHT22;27089;50.022;7.604;2024-01-30T06:03:50;1.50;99.90
41344;DHT22;27089;50.022;7.604;2024-01-30T06:06:18;1.50;99.90
41344;DHT22;27089;50.022;7.604;2024-01-30T06:08:45;1.50;99.90
41344;DHT22;27089;50.022;7.604;2024-01-30T06:11:12;1.40;99.90
41344;DHT22;27089;50.022;7.604;2024-01-30T06:13:39;1.30;99.90
41344;DHT22;27089;50.022;7.604;2024-01-30T06:16:09;1.30;99.90
41344;DHT22;27089;50.022;7.604;2024-01-30T06:18:37;1.40;99.90
41344;DHT22;27089;50.022;7.604;2024-01-30T06:21:04;1.40;99.90
41344;DHT22;27089;50.022;7.604;2024-01-30T06:23:33;1.40;99.90
41344;DHT22;27089;50.022;7.604;2024-01-30T06:26:00;1.40;99.90
41344;DHT22;27089;50.022;7.604;2024-01-30T06:28:27;1.30;99.90
41344;DHT22;27089;50.022;7.604;2024-01-30T06:30:54;1.30;99.90
41344;DHT22;27089;50.022;7.604;2024-01-30T06:33:21;1.20;99.90
41344;DHT22;27089;50.022;7.604;2024-01-30T06:35:48;1.30;99.90
41344;DHT22;27089;50.022;7.604;2024-01-30T06:38:15;1.30;99.90
41344;DHT22;27089;50.022;7.604;2024-01-30T06:40:44;1.30;99.90
41344;DHT22;27089;50.022;7.604;2024-01-30T06:43:11;1.30;99.90
41344;DHT22;27089;50.022;7.604;2024-01-30T06:45:38;1.20;99.90
41344;DHT22;27089;50.022;7.604;2024-01-30T06:48:05;1.10;99.90
41344;DHT22;27089;50.022;7.604;2024-01-30T06:50:32;1.10;99.90
41344;DHT22;27089;50.022;7.604;2024-01-30T06:52:59;1.00;99.90
41344;DHT22;27089;50.022;7.604;2024-01-30T06:55:26;1.00;99.90
41344;DHT22;27089;50.022;7.604;2024-01-30T06:57:55;1.00;99.90
41344;DHT22;27089;50.022;7.604;2024-01-30T07:00:22;1.00;99.90
41344;DHT22;27089;50.022;7.604;2024-01-30T07:02:49;1.10;99.90
41344;DHT22;27089;50.022;7.604;2024-01-30T07:05:16;1.10;99.90
41344;DHT22;27089;50.022;7.604;2024-01-30T07:07:44;1.20;99.90
41344;DHT22;27089;50.022;7.604;2024-01-30T07:10:11;1.20;99.90
41344;DHT22;27089;50.022;7.604;2024-01-30T07:12:38;1.20;99.90
41344;DHT22;27089;50.022;7.604;2024-01-30T07:15:07;1.30;99.90
41344;DHT22;27089;50.022;7.604;2024-01-30T07:17:34;1.30;99.90
41344;DHT22;27089;50.022;7.604;2024-01-30T07:20:02;1.40;99.90
41344;DHT22;27089;50.022;7.604;2024-01-30T07:22:33;1.50;99.90
41344;DHT22;27089;50.022;7.604;2024-01-30T07:25:00;1.60;99.90
41344;DHT22;27089;50.022;7.604;2024-01-30T07:27:27;1.70;99.90
41344;DHT22;27089;50.022;7.604;2024-01-30T07:29:54;1.80;99.90
41344;DHT22;27089;50.022;7.604;2024-01-30T07:32:22;2.00;99.90
41344;DHT22;27089;50.022;7.604;2024-01-30T07:34:50;2.00;99.90
41344;DHT22;27089;50.022;7.604;2024-01-30T07:37:17;2.00;99.90
41344;DHT22;27089;50.022;7.604;2024-01-30T07:39:45;2.10;99.90
41344;DHT22;27089;50.022;7.604;2024-01-30T07:42:12;2.20;99.90
41344;DHT22;27089;50.022;7.604;2024-01-30T07:44:39;2.40;99.90
41344;DHT22;27089;50.022;7.604;2024-01-30T07:47:06;2.50;99.90
41344;DHT22;27089;50.022;7.604;2024-01-30T07:49:34;2.60;99.90
41344;DHT22;27089;50.022;7.604;2024-01-30T07:52:02;2.80;99.90
41344;DHT22;27089;50.022;7.604;2024-01-30T07:54:32;2.90;99.90
41344;DHT22;27089;50.022;7.604;2024-01-30T07:57:00;3.00;99.90
41344;DHT22;27089;50.022;7.604;2024-01-30T07:59:27;2.90;99.90
41344;DHT22;27089;50.022;7.604;2024-01-30T08:01:54;2.90;99.90
41344;DHT22;27089;50.022;7.604;2024-01-30T08:04:21;2.80;99.90
41344;DHT22;27089;50.022;7.604;2024-01-30T08:06:50;2.70;99.90
41344;DHT22;27089;50.022;7.604;2024-01-30T08:09:17;2.70;99.90
41344;DHT22;27089;50.022;7.604;2024-01-30T08:11:43;2.80;99.90
41344;DHT22;27089;50.022;7.604;2024-01-30T08:14:10;2.90;99.90
41344;DHT22;27089;50.022;7.604;2024-01-30T08:16:37;3.00;99.90
41344;DHT22;27089;50.022;7.604;2024-01-30T08:19:04;3.10;99.90
41344;DHT22;27089;50.022;7.604;2024-01-30T08:21:31;3.20;99.90
41344;DHT22;27089;50.022;7.604;2024-01-30T08:24:03;3.40;99.90
41344;DHT22;27089;50.022;7.604;2024-01-30T08:26:31;3.50;99.90
41344;DHT22;27089;50.022;7.604;2024-01-30T08:28:58;3.50;99.90
41344;DHT22;27089;50.022;7.604;2024-01-30T08:31:25;3.70;99.90
41344;DHT22;27089;50.022;7.604;2024-01-30T08:33:52;3.70;99.90
41344;DHT22;27089;50.022;7.604;2024-01-30T08:36:19;3.90;99.90
41344;DHT22;27089;50.022;7.604;2024-01-30T08:38:46;4.00;99.90
41344;DHT22;27089;50.022;7.604;2024-01-30T08:41:15;4.20;99.90
41344;DHT22;27089;50.022;7.604;2024-01-30T08:43:42;4.40;99.90
41344;DHT22;27089;50.022;7.604;2024-01-30T08:46:10;4.50;99.90
41344;DHT22;27089;50.022;7.604;2024-01-30T08:48:37;4.50;99.90
41344;DHT22;27089;50.022;7.604;2024-01-30T08:51:04;4.50;99.90
41344;DHT22;27089;50.022;7.604;2024-01-30T08:53:34;4.50;99.90
41344;DHT22;27089;50.022;7.604;2024-01-30T08:56:02;4.60;99.90
41344;DHT22;27089;50.022;7.604;2024-01-30T08:58:30;4.70;99.90
41344;DHT22;27089;50.022;7.604;2024-01-30T09:00:58;4.80;99.90
41344;DHT22;27089;50.022;7.604;2024-01-30T09:03:25;4.80;99.90
41344;DHT22;27089;50.022;7.604;2024-01-30T09:05:53;4.80;99.90
41344;DHT22;27089;50.022;7.604;2024-01-30T09:08:20;4.80;99.90
41344;DHT22;27089;50.022;7.604;2024-01-30T09:10:47;4.90;99.90
41344;DHT22;27089;50.022;7.604;2024-01-30T09:13:15;4.90;99.90
41344;DHT22;27089;50.022;7.604;2024-01-30T09:15:44;5.00;99.90
41344;DHT22;27089;50.022;7.604;2024-01-30T09:18:11;5.20;99.90
41344;DHT22;27089;50.022;7.604;2024-01-30T09:20:38;5.40;99.90
41344;DHT22;27089;50.022;7.604;2024-01-30T09:23:04;5.50;99.90
41344;DHT22;27089;50.022;7.604;2024-01-30T09:25:32;5.60;99.90
41344;DHT22;27089;50.022;7.604;2024-01-30T09:27:59;5.70;99.90
41344;DHT22;27089;50.022;7.604;2024-01-30T09:30:26;5.80;99.90
41344;DHT22;27089;50.022;7.604;2024-01-30T09:32:55;5.90;99.90
41344;DHT22;27089;50.022;7.604;2024-01-30T09:35:22;6.00;99.90
41344;DHT22;27089;50.022;7.604;2024-01-30T09:37:49;6.20;99.90
41344;DHT22;27089;50.022;7.604;2024-01-30T09:40:17;6.30;99.90
41344;DHT22;27089;50.022;7.604;2024-01-30T09:42:47;6.40;99.90
41344;DHT22;27089;50.022;7.604;2024-01-30T09:45:14;6.50;99.90
41344;DHT22;27089;50.022;7.604;2024-01-30T09:47:42;6.60;99.90
41344;DHT22;27089;50.022;7.604;2024-01-30T09:50:12;6.80;99.90
41344;DHT22;27089;50.022;7.604;2024-01-30T09:52:39;6.90;99.90
41344;DHT22;27089;50.022;7.604;2024-01-30T09:55:07;7.00;99.90
41344;DHT22;27089;50.022;7.604;2024-01-30T09:57:35;7.10;99.90
41344;DHT22;27089;50.022;7.604;2024-01-30T10:00:02;7.20;99.90
41344;DHT22;27089;50.022;7.604;2024-01-30T10:02:30;7.30;99.90
41344;DHT22;27089;50.022;7.604;2024-01-30T10:04:57;7.50;99.90
41344;DHT22;27089;50.022;7.604;2024-01-30T10:07:26;7.60;99.90
41344;DHT22;27089;50.022;7.604;2024-01-30T10:09:54;7.80;99.90
41344;DHT22;27089;50.022;7.604;2024-01-30T10:12:22;8.00;99.90
41344;DHT22;27089;50.022;7.604;2024-01-30T10:14:49;8.10;99.90
41344;DHT22;27089;50.022;7.604;2024-01-30T10:17:16;8.30;99.90
41344;DHT22;27089;50.022;7.604;2024-01-30T10:19:43;8.50;99.90
41344;DHT22;27089;50.022;7.604;2024-01-30T10:22:10;8.50;99.90
41344;DHT22;27089;50.022;7.604;2024-01-30T10:24:39;8.60;99.90
41344;DHT22;27089;50.022;7.604;2024-01-30T10:27:06;8.50;99.90
41344;DHT22;27089;50.022;7.604;2024-01-30T10:29:33;8.50;99.90
41344;DHT22;27089;50.022;7.604;2024-01-30T10:32:01;8.60;99.90
41344;DHT22;27089;50.022;7.604;2024-01-30T10:34:29;8.70;99.90
41344;DHT22;27089;50.022;7.604;2024-01-30T10:37:01;8.80;99.90
41344;DHT22;27089;50.022;7.604;2024-01-30T10:39:36;8.90;99.90
41344;DHT22;27089;50.022;7.604;2024-01-30T10:42:07;8.90;99.90
41344;DHT22;27089;50.022;7.604;2024-01-30T10:44:43;8.90;99.90
41344;DHT22;27089;50.022;7.604;2024-01-30T10:47:12;8.90;99.90
41344;DHT22;27089;50.022;7.604;2024-01-30T10:49:42;9.00;99.90
41344;DHT22;27089;50.022;7.604;2024-01-30T10:52:10;9.10;99.90
41344;DHT22;27089;50.022;7.604;2024-01-30T10:54:40;9.20;99.90
41344;DHT22;27089;50.022;7.604;2024-01-30T10:57:12;9.20;99.90
41344;DHT22;27089;50.022;7.604;2024-01-30T10:59:40;9.30;99.90
41344;DHT22;27089;50.022;7.604;2024-01-30T11:02:09;9.40;99.90
41344;DHT22;27089;50.022;7.604;2024-01-30T11:04:36;9.40;99.90
41344;DHT22;27089;50.022;7.604;2024-01-30T11:07:14;9.40;99.90
41344;DHT22;27089;50.022;7.604;2024-01-30T11:09:48;9.40;99.90
41344;DHT22;27089;50.022;7.604;2024-01-30T11:12:16;9.30;99.90
41344;DHT22;27089;50.022;7.604;2024-01-30T11:14:43;9.30;99.90
41344;DHT22;27089;50.022;7.604;2024-01-30T11:17:10;9.30;99.90
41344;DHT22;27089;50.022;7.604;2024-01-30T11:19:38;9.30;99.90
41344;DHT22;27089;50.022;7.604;2024-01-30T11:22:06;9.10;99.90
41344;DHT22;27089;50.022;7.604;2024-01-30T11:24:39;9.00;99.90
41344;DHT22;27089;50.022;7.604;2024-01-30T11:27:08;9.00;99.90
41344;DHT22;27089;50.022;7.604;2024-01-30T11:29:36;9.00;99.90
41344;DHT22;27089;50.022;7.604;2024-01-30T11:32:04;9.10;99.90
41344;DHT22;27089;50.022;7.604;2024-01-30T11:34:32;9.10;99.90
41344;DHT22;27089;50.022;7.604;2024-01-30T11:37:03;9.10;99.90
41344;DHT22;27089;50.022;7.604;2024-01-30T11:39:30;9.20;99.90
41344;DHT22;27089;50.022;7.604;2024-01-30T11:41:59;9.20;99.90
41344;DHT22;27089;50.022;7.604;2024-01-30T11:44:26;9.30;99.90
41344;DHT22;27089;50.022;7.604;2024-01-30T11:46:54;9.30;99.90
41344;DHT22;27089;50.022;7.604;2024-01-30T11:49:21;9.40;99.90
41344;DHT22;27089;50.022;7.604;2024-01-30T11:51:50;9.50;99.90
41344;DHT22;27089;50.022;7.604;2024-01-30T11:54:18;9.50;99.90
41344;DHT22;27089;50.022;7.604;2024-01-30T11:56:45;9.60;99.90
41344;DHT22;27089;50.022;7.604;2024-01-30T11:59:13;9.70;99.90
41344;DHT22;27089;50.022;7.604;2024-01-30T12:01:41;9.80;99.90
41344;DHT22;27089;50.022;7.604;2024-01-30T12:04:09;9.90;99.90
41344;DHT22;27089;50.022;7.604;2024-01-30T12:06:36;10.00;99.90
41344;DHT22;27089;50.022;7.604;2024-01-30T12:09:04;10.20;99.90
41344;DHT22;27089;50.022;7.604;2024-01-30T12:11:34;10.20;99.90
41344;DHT22;27089;50.022;7.604;2024-01-30T12:14:09;10.30;99.90
41344;DHT22;27089;50.022;7.604;2024-01-30T12:16:36;10.30;99.90
41344;DHT22;27089;50.022;7.604;2024-01-30T12:19:03;10.30;99.90
41344;DHT22;27089;50.022;7.604;2024-01-30T12:21:33;10.20;99.90
41344;DHT22;27089;50.022;7.604;2024-01-30T12:24:00;10.30;99.90
41344;DHT22;27089;50.022;7.604;2024-01-30T12:26:27;10.30;99.90
41344;DHT22;27089;50.022;7.604;2024-01-30T12:28:55;10.40;99.90
41344;DHT22;27089;50.022;7.604;2024-01-30T12:31:25;10.40;99.90
41344;DHT22;27089;50.022;7.604;2024-01-30T12:33:53;10.40;99.90
41344;DHT22;27089;50.022;7.604;2024-01-30T12:36:21;10.40;99.90
41344;DHT22;27089;50.022;7.604;2024-01-30T12:38:50;10.50;99.90
41344;DHT22;27089;50.022;7.604;2024-01-30T12:41:17;10.50;99.90
41344;DHT22;27089;50.022;7.604;2024-01-30T12:43:44;10.60;99.90
41344;DHT22;27089;50.022;7.604;2024-01-30T12:46:11;10.60;99.90
41344;DHT22;27089;50.022;7.604;2024-01-30T12:48:38;10.70;99.90
41344;DHT22;27089;50.022;7.604;2024-01-30T12:51:05;10.70;99.90
41344;DHT22;27089;50.022;7.604;2024-01-30T12:53:32;10.70;99.90
41344;DHT22;27089;50.022;7.604;2024-01-30T12:56:00;10.70;99.90
41344;DHT22;27089;50.022;7.604;2024-01-30T12:58:27;10.60;99.90
41344;DHT22;27089;50.022;7.604;2024-01-30T13:00:55;10.60;99.90
41344;DHT22;27089;50.022;7.604;2024-01-30T13:03:22;10.70;99.90
41344;DHT22;27089;50.022;7.604;2024-01-30T13:05:49;10.70;99.90
41344;DHT22;27089;50.022;7.604;2024-01-30T13:08:16;10.60;99.90
41344;DHT22;27089;50.022;7.604;2024-01-30T13:10:43;10.60;99.90
41344;DHT22;27089;50.022;7.604;2024-01-30T13:13:12;10.60;99.90
41344;DHT22;27089;50.022;7.604;2024-01-30T13:15:39;10.60;99.90
41344;DHT22;27089;50.022;7.604;2024-01-30T13:18:06;10.60;99.90
41344;DHT22;27089;50.022;7.604;2024-01-30T13:20:33;10.50;99.90
41344;DHT22;27089;50.022;7.604;2024-01-30T13:23:00;10.50;99.90
41344;DHT22;27089;50.022;7.604;2024-01-30T13:25:27;10.50;99.90
41344;DHT22;27089;50.022;7.604;2024-01-30T13:27:54;10.50;99.90
41344;DHT22;27089;50.022;7.604;2024-01-30T13:30:23;10.50;99.90
41344;DHT22;27089;50.022;7.604;2024-01-30T13:32:49;10.40;99.90
41344;DHT22;27089;50.022;7.604;2024-01-30T13:35:16;10.40;99.90
41344;DHT22;27089;50.022;7.604;2024-01-30T13:37:44;10.30;99.90
41344;DHT22;27089;50.022;7.604;2024-01-30T13:40:13;10.20;99.90
41344;DHT22;27089;50.022;7.604;2024-01-30T13:42:42;10.10;99.90
41344;DHT22;27089;50.022;7.604;2024-01-30T13:45:09;10.10;99.90
41344;DHT22;27089;50.022;7.604;2024-01-30T13:47:38;10.00;99.90
41344;DHT22;27089;50.022;7.604;2024-01-30T13:50:05;10.00;99.90
41344;DHT22;27089;50.022;7.604;2024-01-30T13:52:33;10.00;99.90
41344;DHT22;27089;50.022;7.604;2024-01-30T13:55:00;10.00;99.90
41344;DHT22;27089;50.022;7.604;2024-01-30T13:57:28;10.00;99.90
41344;DHT22;27089;50.022;7.604;2024-01-30T13:59:58;10.00;99.90
41344;DHT22;27089;50.022;7.604;2024-01-30T14:02:25;10.00;99.90
41344;DHT22;27089;50.022;7.604;2024-01-30T14:04:54;10.00;99.90
41344;DHT22;27089;50.022;7.604;2024-01-30T14:07:21;9.90;99.90
41344;DHT22;27089;50.022;7.604;2024-01-30T14:09:48;9.90;99.90
41344;DHT22;27089;50.022;7.604;2024-01-30T14:12:16;9.90;99.90
41344;DHT22;27089;50.022;7.604;2024-01-30T14:14:43;9.90;99.90
41344;DHT22;27089;50.022;7.604;2024-01-30T14:17:09;9.90;99.90
41344;DHT22;27089;50.022;7.604;2024-01-30T14:19:37;9.90;99.90
41344;DHT22;27089;50.022;7.604;2024-01-30T14:22:05;9.90;99.90
41344;DHT22;27089;50.022;7.604;2024-01-30T14:24:32;9.90;99.90
41344;DHT22;27089;50.022;7.604;2024-01-30T14:26:59;9.80;99.90
41344;DHT22;27089;50.022;7.604;2024-01-30T14:29:26;9.80;99.90
41344;DHT22;27089;50.022;7.604;2024-01-30T14:31:53;9.80;99.90
41344;DHT22;27089;50.022;7.604;2024-01-30T14:34:22;9.80;99.90
41344;DHT22;27089;50.022;7.604;2024-01-30T14:36:49;9.80;99.90
41344;DHT22;27089;50.022;7.604;2024-01-30T14:39:17;9.80;99.90
41344;DHT22;27089;50.022;7.604;2024-01-30T14:41:45;9.80;99.90
41344;DHT22;27089;50.022;7.604;2024-01-30T14:44:12;9.80;99.90
41344;DHT22;27089;50.022;7.604;2024-01-30T14:46:39;9.80;99.90
41344;DHT22;27089;50.022;7.604;2024-01-30T14:49:07;9.80;99.90
41344;DHT22;27089;50.022;7.604;2024-01-30T14:51:35;9.80;99.90
41344;DHT22;27089;50.022;7.604;2024-01-30T14:54:02;9.80;99.90
41344;DHT22;27089;50.022;7.604;2024-01-30T14:56:31;9.80;99.90
41344;DHT22;27089;50.022;7.604;2024-01-30T14:58:58;9.70;99.90
41344;DHT22;27089;50.022;7.604;2024-01-30T15:01:25;9.70;99.90
41344;DHT22;27089;50.022;7.604;2024-01-30T15:03:52;9.70;99.90
41344;DHT22;27089;50.022;7.604;2024-01-30T15:06:21;9.70;99.90
41344;DHT22;27089;50.022;7.604;2024-01-30T15:08:49;9.60;99.90
41344;DHT22;27089;50.022;7.604;2024-01-30T15:11:16;9.60;99.90
41344;DHT22;27089;50.022;7.604;2024-01-30T15:13:45;9.50;99.90
41344;DHT22;27089;50.022;7.604;2024-01-30T15:16:12;9.50;99.90
41344;DHT22;27089;50.022;7.604;2024-01-30T15:18:39;9.40;99.90
41344;DHT22;27089;50.022;7.604;2024-01-30T15:21:06;9.40;99.90
41344;DHT22;27089;50.022;7.604;2024-01-30T15:23:33;9.40;99.90
41344;DHT22;27089;50.022;7.604;2024-01-30T15:26:00;9.40;99.90
41344;DHT22;27089;50.022;7.604;2024-01-30T15:28:34;9.40;99.90
41344;DHT22;27089;50.022;7.604;2024-01-30T15:31:05;9.40;99.90
41344;DHT22;27089;50.022;7.604;2024-01-30T15:33:33;9.30;99.90
41344;DHT22;27089;50.022;7.604;2024-01-30T15:36:00;9.30;99.90
41344;DHT22;27089;50.022;7.604;2024-01-30T15:38:28;9.30;99.90
41344;DHT22;27089;50.022;7.604;2024-01-30T15:40:55;9.20;99.90
41344;DHT22;27089;50.022;7.604;2024-01-30T15:43:22;9.20;99.90
41344;DHT22;27089;50.022;7.604;2024-01-30T15:45:50;9.20;99.90